Plymouth Valley, Pennsylvania
Current Conditions -  °F | °C
As of 3:15 PM on Friday 19 Dec 2014 (Local Time) from KLOM Reporting Station
Clear Clear  
Wind Chill: 37°   Ceiling: Unl
Heat Index: 41°   Visibility: 10mi
Dew Point: 25°   Wind: 6mph
Humidity: 53%   Direction: 320°NW
Pressure: 30.06"   Gusts: NA
Location:  40.111°N, 75.271°W
Report Text: KLOM 192015Z AUTO 32005KT 10SM CLR 05/M04 A3006 RMK AO1
Loading
Personal Weather Stations






























Interactive Weather Map New forecast layout! Learn more

10-Day Weather Forecast

Advertisements
Track Severe Weather on mobile